sensor_id;sensor_type;location;lat;lon;timestamp;pressure;altitude;pressure_sealevel;temperature;humidity
64844;BME280;51310;52.198;5.422;2023-05-12T00:02:24;101598.63;;;10.18;100.00
64844;BME280;51310;52.198;5.422;2023-05-12T00:04:50;101591.50;;;10.16;100.00
64844;BME280;51310;52.198;5.422;2023-05-12T00:07:16;101595.06;;;10.25;100.00
64844;BME280;51310;52.198;5.422;2023-05-12T00:09:41;101595.59;;;10.30;100.00
64844;BME280;51310;52.198;5.422;2023-05-12T00:12:08;101590.16;;;10.19;100.00
64844;BME280;51310;52.198;5.422;2023-05-12T00:14:35;101592.22;;;10.15;100.00
64844;BME280;51310;52.198;5.422;2023-05-12T00:17:05;101595.47;;;10.21;100.00
64844;BME280;51310;52.198;5.422;2023-05-12T00:19:34;101592.56;;;10.18;100.00
64844;BME280;51310;52.198;5.422;2023-05-12T00:22:01;101587.25;;;10.16;100.00
64844;BME280;51310;52.198;5.422;2023-05-12T00:24:27;101594.69;;;10.06;100.00
64844;BME280;51310;52.198;5.422;2023-05-12T00:26:54;101580.59;;;10.02;100.00
64844;BME280;51310;52.198;5.422;2023-05-12T00:29:20;101589.72;;;10.07;100.00
64844;BME280;51310;52.198;5.422;2023-05-12T00:31:46;101587.91;;;10.06;100.00
64844;BME280;51310;52.198;5.422;2023-05-12T00:34:11;101580.63;;;10.18;100.00
64844;BME280;51310;52.198;5.422;2023-05-12T00:36:38;101586.75;;;10.12;100.00
64844;BME280;51310;52.198;5.422;2023-05-12T00:39:04;101583.66;;;10.07;100.00
64844;BME280;51310;52.198;5.422;2023-05-12T00:41:29;101578.28;;;10.13;100.00
64844;BME280;51310;52.198;5.422;2023-05-12T00:43:55;101582.50;;;10.12;100.00
64844;BME280;51310;52.198;5.422;2023-05-12T00:46:21;101577.09;;;10.02;100.00
64844;BME280;51310;52.198;5.422;2023-05-12T00:48:47;101580.53;;;10.10;100.00
64844;BME280;51310;52.198;5.422;2023-05-12T00:51:15;101574.38;;;10.00;100.00
64844;BME280;51310;52.198;5.422;2023-05-12T00:53:41;101571.03;;;10.01;100.00
64844;BME280;51310;52.198;5.422;2023-05-12T00:56:08;101575.09;;;9.99;100.00
64844;BME280;51310;52.198;5.422;2023-05-12T00:58:34;101567.63;;;9.94;100.00
64844;BME280;51310;52.198;5.422;2023-05-12T01:01:00;101565.72;;;10.00;100.00
64844;BME280;51310;52.198;5.422;2023-05-12T01:03:26;101571.44;;;9.97;100.00
64844;BME280;51310;52.198;5.422;2023-05-12T01:06:15;101567.78;;;9.95;100.00
64844;BME280;51310;52.198;5.422;2023-05-12T01:08:42;101564.31;;;10.11;100.00
64844;BME280;51310;52.198;5.422;2023-05-12T01:11:08;101555.19;;;10.05;100.00
64844;BME280;51310;52.198;5.422;2023-05-12T01:13:34;101558.69;;;10.06;100.00
64844;BME280;51310;52.198;5.422;2023-05-12T01:16:02;101551.63;;;10.12;100.00
64844;BME280;51310;52.198;5.422;2023-05-12T01:18:32;101555.97;;;10.04;100.00
64844;BME280;51310;52.198;5.422;2023-05-12T01:20:59;101552.56;;;10.13;100.00
64844;BME280;51310;52.198;5.422;2023-05-12T01:23:33;101547.50;;;10.21;100.00
64844;BME280;51310;52.198;5.422;2023-05-12T01:26:07;101554.97;;;10.11;100.00
64844;BME280;51310;52.198;5.422;2023-05-12T01:28:34;101540.03;;;10.16;100.00
64844;BME280;51310;52.198;5.422;2023-05-12T01:31:03;101544.84;;;10.13;100.00
64844;BME280;51310;52.198;5.422;2023-05-12T01:33:30;101547.41;;;10.13;100.00
64844;BME280;51310;52.198;5.422;2023-05-12T01:35:56;101543.75;;;10.11;100.00
64844;BME280;51310;52.198;5.422;2023-05-12T01:38:22;101545.78;;;10.13;100.00
64844;BME280;51310;52.198;5.422;2023-05-12T01:40:48;101551.13;;;10.07;100.00
64844;BME280;51310;52.198;5.422;2023-05-12T01:43:14;101553.88;;;10.09;100.00
64844;BME280;51310;52.198;5.422;2023-05-12T01:45:39;101561.84;;;10.03;100.00
64844;BME280;51310;52.198;5.422;2023-05-12T01:48:05;101557.69;;;10.13;100.00
64844;BME280;51310;52.198;5.422;2023-05-12T01:50:31;101553.38;;;10.04;100.00
64844;BME280;51310;52.198;5.422;2023-05-12T01:52:56;101554.03;;;10.11;100.00
64844;BME280;51310;52.198;5.422;2023-05-12T01:55:23;101561.03;;;10.12;100.00
64844;BME280;51310;52.198;5.422;2023-05-12T01:57:48;101561.03;;;10.12;100.00
64844;BME280;51310;52.198;5.422;2023-05-12T02:00:14;101544.19;;;10.06;100.00
64844;BME280;51310;52.198;5.422;2023-05-12T02:02:40;101556.09;;;10.06;100.00
64844;BME280;51310;52.198;5.422;2023-05-12T02:05:07;101562.19;;;10.06;100.00
64844;BME280;51310;52.198;5.422;2023-05-12T02:07:33;101555.97;;;10.04;100.00
64844;BME280;51310;52.198;5.422;2023-05-12T02:09:59;101561.75;;;10.11;100.00
64844;BME280;51310;52.198;5.422;2023-05-12T02:12:25;101562.34;;;10.08;100.00
64844;BME280;51310;52.198;5.422;2023-05-12T02:14:50;101554.78;;;10.10;100.00
64844;BME280;51310;52.198;5.422;2023-05-12T02:17:16;101551.63;;;10.12;100.00
64844;BME280;51310;52.198;5.422;2023-05-12T02:19:42;101557.19;;;10.08;100.00
64844;BME280;51310;52.198;5.422;2023-05-12T02:22:07;101557.19;;;10.08;100.00
64844;BME280;51310;52.198;5.422;2023-05-12T02:24:33;101551.31;;;10.09;100.00
64844;BME280;51310;52.198;5.422;2023-05-12T02:26:59;101549.25;;;10.14;100.00
64844;BME280;51310;52.198;5.422;2023-05-12T02:29:24;101547.84;;;10.09;100.00
64844;BME280;51310;52.198;5.422;2023-05-12T02:31:50;101556.88;;;10.05;100.00
64844;BME280;51310;52.198;5.422;2023-05-12T02:34:16;101553.00;;;10.09;100.00
64844;BME280;51310;52.198;5.422;2023-05-12T02:36:42;101553.00;;;10.09;100.00
64844;BME280;51310;52.198;5.422;2023-05-12T02:39:07;101545.28;;;10.09;100.00
64844;BME280;51310;52.198;5.422;2023-05-12T02:41:33;101547.09;;;10.10;100.00
64844;BME280;51310;52.198;5.422;2023-05-12T02:43:59;101544.91;;;10.05;100.00
64844;BME280;51310;52.198;5.422;2023-05-12T02:46:24;101549.72;;;10.02;100.00
64844;BME280;51310;52.198;5.422;2023-05-12T02:48:50;101549.88;;;10.04;100.00
64844;BME280;51310;52.198;5.422;2023-05-12T02:51:16;101545.00;;;9.98;100.00
64844;BME280;51310;52.198;5.422;2023-05-12T02:53:41;101541.53;;;9.98;100.00
64844;BME280;51310;52.198;5.422;2023-05-12T02:56:07;101543.41;;;9.92;100.00
64844;BME280;51310;52.198;5.422;2023-05-12T02:58:33;101544.81;;;9.97;100.00
64844;BME280;51310;52.198;5.422;2023-05-12T03:00:59;101541.91;;;9.94;100.00
64844;BME280;51310;52.198;5.422;2023-05-12T03:03:25;101539.91;;;9.91;100.00
64844;BME280;51310;52.198;5.422;2023-05-12T03:05:50;101537.50;;;9.93;100.00
64844;BME280;51310;52.198;5.422;2023-05-12T03:08:17;101545.97;;;9.92;100.00
64844;BME280;51310;52.198;5.422;2023-05-12T03:10:43;101536.78;;;9.94;100.00
64844;BME280;51310;52.198;5.422;2023-05-12T03:13:09;101536.03;;;9.95;100.00
64844;BME280;51310;52.198;5.422;2023-05-12T03:15:34;101538.59;;;9.95;100.00
64844;BME280;51310;52.198;5.422;2023-05-12T03:18:01;101536.25;;;9.89;100.00
64844;BME280;51310;52.198;5.422;2023-05-12T03:20:27;101539.00;;;9.91;100.00
64844;BME280;51310;52.198;5.422;2023-05-12T03:22:53;101545.72;;;9.97;100.00
64844;BME280;51310;52.198;5.422;2023-05-12T03:25:18;101539.16;;;9.92;100.00
64844;BME280;51310;52.198;5.422;2023-05-12T03:27:44;101530.16;;;9.96;100.00
64844;BME280;51310;52.198;5.422;2023-05-12T03:30:10;101525.91;;;9.96;100.00
64844;BME280;51310;52.198;5.422;2023-05-12T03:32:36;101525.72;;;9.95;100.00
64844;BME280;51310;52.198;5.422;2023-05-12T03:35:05;101520.59;;;9.95;100.00
64844;BME280;51310;52.198;5.422;2023-05-12T03:37:32;101526.63;;;9.95;100.00
64844;BME280;51310;52.198;5.422;2023-05-12T03:39:58;101525.56;;;9.93;100.00
64844;BME280;51310;52.198;5.422;2023-05-12T03:42:23;101530.47;;;9.99;100.00
64844;BME280;51310;52.198;5.422;2023-05-12T03:44:51;101525.81;;;10.03;100.00
64844;BME280;51310;52.198;5.422;2023-05-12T03:47:17;101521.69;;;10.13;100.00
64844;BME280;51310;52.198;5.422;2023-05-12T03:49:43;101525.75;;;10.11;100.00
64844;BME280;51310;52.198;5.422;2023-05-12T03:52:08;101521.69;;;10.13;100.00
64844;BME280;51310;52.198;5.422;2023-05-12T03:54:34;101527.75;;;10.13;100.00
64844;BME280;51310;52.198;5.422;2023-05-12T03:57:00;101526.09;;;10.14;100.00
64844;BME280;51310;52.198;5.422;2023-05-12T03:59:29;101519.88;;;10.12;100.00
64844;BME280;51310;52.198;5.422;2023-05-12T04:01:56;101515.81;;;10.14;100.00
64844;BME280;51310;52.198;5.422;2023-05-12T04:04:22;101522.94;;;10.16;100.00
64844;BME280;51310;52.198;5.422;2023-05-12T04:06:47;101522.22;;;10.17;100.00
64844;BME280;51310;52.198;5.422;2023-05-12T04:09:13;101516.63;;;10.21;100.00
64844;BME280;51310;52.198;5.422;2023-05-12T04:11:41;101520.69;;;10.19;100.00
64844;BME280;51310;52.198;5.422;2023-05-12T04:14:07;101518.69;;;10.17;100.00
64844;BME280;51310;52.198;5.422;2023-05-12T04:16:33;101530.56;;;10.23;100.00
64844;BME280;51310;52.198;5.422;2023-05-12T04:19:00;101523.44;;;10.21;100.00
64844;BME280;51310;52.198;5.422;2023-05-12T04:21:26;101522.66;;;10.29;100.00
64844;BME280;51310;52.198;5.422;2023-05-12T04:23:52;101528.88;;;10.31;100.00
64844;BME280;51310;52.198;5.422;2023-05-12T04:26:18;101533.25;;;10.32;100.00
64844;BME280;51310;52.198;5.422;2023-05-12T04:28:43;101537.28;;;10.37;100.00
64844;BME280;51310;52.198;5.422;2023-05-12T04:31:09;101539.66;;;10.36;100.00
64844;BME280;51310;52.198;5.422;2023-05-12T04:33:35;101537.44;;;10.39;100.00
64844;BME280;51310;52.198;5.422;2023-05-12T04:36:00;101538.44;;;10.48;100.00
64844;BME280;51310;52.198;5.422;2023-05-12T04:38:26;101533.59;;;10.51;100.00
64844;BME280;51310;52.198;5.422;2023-05-12T04:40:59;101550.31;;;10.55;100.00
64844;BME280;51310;52.198;5.422;2023-05-12T04:43:25;101535.16;;;10.58;100.00
64844;BME280;51310;52.198;5.422;2023-05-12T04:45:51;101539.59;;;10.59;100.00
64844;BME280;51310;52.198;5.422;2023-05-12T04:48:19;101542.66;;;10.63;100.00
64844;BME280;51310;52.198;5.422;2023-05-12T04:50:47;101548.41;;;10.61;100.00
64844;BME280;51310;52.198;5.422;2023-05-12T04:53:14;101558.34;;;10.58;100.00
64844;BME280;51310;52.198;5.422;2023-05-12T04:55:41;101548.41;;;10.61;100.00
64844;BME280;51310;52.198;5.422;2023-05-12T04:58:07;101555.84;;;10.66;100.00
64844;BME280;51310;52.198;5.422;2023-05-12T05:00:33;101562.47;;;10.64;100.00
64844;BME280;51310;52.198;5.422;2023-05-12T05:02:58;101571.16;;;10.65;100.00
64844;BME280;51310;52.198;5.422;2023-05-12T05:05:24;101566.13;;;10.66;100.00
64844;BME280;51310;52.198;5.422;2023-05-12T05:07:50;101581.53;;;10.74;100.00
64844;BME280;51310;52.198;5.422;2023-05-12T05:10:15;101578.34;;;10.76;100.00
64844;BME280;51310;52.198;5.422;2023-05-12T05:12:41;101583.69;;;10.78;100.00
64844;BME280;51310;52.198;5.422;2023-05-12T05:15:08;101578.84;;;10.81;100.00
64844;BME280;51310;52.198;5.422;2023-05-12T05:17:36;101583.81;;;10.79;100.00
64844;BME280;51310;52.198;5.422;2023-05-12T05:20:02;101595.06;;;10.80;100.00
64844;BME280;51310;52.198;5.422;2023-05-12T05:22:28;101594.47;;;10.82;100.00
64844;BME280;51310;52.198;5.422;2023-05-12T05:24:54;101592.56;;;10.88;100.00
64844;BME280;51310;52.198;5.422;2023-05-12T05:27:20;101595.88;;;10.87;100.00
64844;BME280;51310;52.198;5.422;2023-05-12T05:29:46;101601.19;;;10.89;100.00
64844;BME280;51310;52.198;5.422;2023-05-12T05:32:11;101597.72;;;10.88;100.00
64844;BME280;51310;52.198;5.422;2023-05-12T05:34:37;101594.78;;;10.85;100.00
64844;BME280;51310;52.198;5.422;2023-05-12T05:37:03;101595.13;;;10.88;100.00
64844;BME280;51310;52.198;5.422;2023-05-12T05:39:29;101595.63;;;10.93;100.00
64844;BME280;51310;52.198;5.422;2023-05-12T05:41:56;101594.44;;;10.98;100.00
64844;BME280;51310;52.198;5.422;2023-05-12T05:44:24;101595.75;;;10.95;100.00
64844;BME280;51310;52.198;5.422;2023-05-12T05:46:50;101601.34;;;11.06;100.00
64844;BME280;51310;52.198;5.422;2023-05-12T05:49:16;101596.91;;;11.05;100.00
64844;BME280;51310;52.198;5.422;2023-05-12T05:51:41;101596.50;;;11.09;100.00
64844;BME280;51310;52.198;5.422;2023-05-12T05:54:07;101596.72;;;11.20;100.00
64844;BME280;51310;52.198;5.422;2023-05-12T05:56:33;101603.06;;;11.15;100.00
64844;BME280;51310;52.198;5.422;2023-05-12T05:59:01;101603.88;;;11.22;100.00
64844;BME280;51310;52.198;5.422;2023-05-12T06:01:29;101604.28;;;11.18;100.00
64844;BME280;51310;52.198;5.422;2023-05-12T06:03:55;101605.38;;;11.20;100.00
64844;BME280;51310;52.198;5.422;2023-05-12T06:06:20;101605.78;;;11.32;100.00
64844;BME280;51310;52.198;5.422;2023-05-12T06:08:46;101604.22;;;11.50;100.00
64844;BME280;51310;52.198;5.422;2023-05-12T06:11:12;101606.13;;;11.44;100.00
64844;BME280;51310;52.198;5.422;2023-05-12T06:13:38;101604.81;;;11.47;100.00
64844;BME280;51310;52.198;5.422;2023-05-12T06:16:04;101611.81;;;11.57;100.00
64844;BME280;51310;52.198;5.422;2023-05-12T06:18:30;101614.56;;;11.59;100.00
64844;BME280;51310;52.198;5.422;2023-05-12T06:20:58;101615.53;;;11.68;100.00
64844;BME280;51310;52.198;5.422;2023-05-12T06:23:24;101616.34;;;11.76;100.00
64844;BME280;51310;52.198;5.422;2023-05-12T06:25:50;101617.19;;;11.67;100.00
64844;BME280;51310;52.198;5.422;2023-05-12T06:28:15;101614.78;;;11.69;100.00
64844;BME280;51310;52.198;5.422;2023-05-12T06:30:41;101624.81;;;11.75;100.00
64844;BME280;51310;52.198;5.422;2023-05-12T06:33:07;101621.16;;;11.73;100.00
64844;BME280;51310;52.198;5.422;2023-05-12T06:35:32;101609.69;;;11.78;100.00
64844;BME280;51310;52.198;5.422;2023-05-12T06:37:58;101620.13;;;11.95;100.00
64844;BME280;51310;52.198;5.422;2023-05-12T06:40:24;101618.03;;;12.08;100.00
64844;BME280;51310;52.198;5.422;2023-05-12T06:42:50;101622.47;;;12.09;100.00
64844;BME280;51310;52.198;5.422;2023-05-12T06:45:16;101617.31;;;12.09;100.00
64844;BME280;51310;52.198;5.422;2023-05-12T06:47:41;101617.16;;;12.17;100.00
64844;BME280;51310;52.198;5.422;2023-05-12T06:50:07;101621.38;;;12.07;100.00
64844;BME280;51310;52.198;5.422;2023-05-12T06:52:34;101614.72;;;12.09;100.00
64844;BME280;51310;52.198;5.422;2023-05-12T06:55:00;101616.72;;;12.21;100.00
64844;BME280;51310;52.198;5.422;2023-05-12T06:57:25;101623.25;;;12.26;100.00
64844;BME280;51310;52.198;5.422;2023-05-12T06:59:51;101631.94;;;12.35;100.00
64844;BME280;51310;52.198;5.422;2023-05-12T07:02:17;101629.81;;;12.31;100.00
64844;BME280;51310;52.198;5.422;2023-05-12T07:04:43;101633.28;;;12.23;100.00
64844;BME280;51310;52.198;5.422;2023-05-12T07:07:09;101637.25;;;12.37;100.00
64844;BME280;51310;52.198;5.422;2023-05-12T07:09:35;101633.03;;;12.46;100.00
64844;BME280;51310;52.198;5.422;2023-05-12T07:12:00;101637.31;;;12.54;100.00
64844;BME280;51310;52.198;5.422;2023-05-12T07:14:26;101635.06;;;12.66;100.00
64844;BME280;51310;52.198;5.422;2023-05-12T07:16:52;101639.91;;;12.63;100.00
64844;BME280;51310;52.198;5.422;2023-05-12T07:19:17;101637.78;;;12.67;100.00
64844;BME280;51310;52.198;5.422;2023-05-12T07:21:43;101638.41;;;12.82;100.00
64844;BME280;51310;52.198;5.422;2023-05-12T07:24:09;101641.63;;;12.88;100.00
64844;BME280;51310;52.198;5.422;2023-05-12T07:26:34;101638.59;;;13.19;100.00
64844;BME280;51310;52.198;5.422;2023-05-12T07:29:00;101634.19;;;13.18;100.00
64844;BME280;51310;52.198;5.422;2023-05-12T07:31:28;101638.94;;;13.30;100.00
64844;BME280;51310;52.198;5.422;2023-05-12T07:33:54;101631.28;;;13.58;100.00
64844;BME280;51310;52.198;5.422;2023-05-12T07:36:19;101625.06;;;13.39;100.00
64844;BME280;51310;52.198;5.422;2023-05-12T07:38:45;101627.78;;;13.58;100.00
64844;BME280;51310;52.198;5.422;2023-05-12T07:41:11;101624.25;;;13.74;100.00
64844;BME280;51310;52.198;5.422;2023-05-12T07:43:37;101628.03;;;13.87;100.00
64844;BME280;51310;52.198;5.422;2023-05-12T07:46:02;101627.91;;;13.77;100.00
64844;BME280;51310;52.198;5.422;2023-05-12T07:48:28;101637.69;;;14.07;100.00
64844;BME280;51310;52.198;5.422;2023-05-12T07:50:54;101634.88;;;14.23;100.00
64844;BME280;51310;52.198;5.422;2023-05-12T07:53:20;101635.19;;;14.45;100.00
64844;BME280;51310;52.198;5.422;2023-05-12T07:55:46;101630.91;;;14.26;100.00
64844;BME280;51310;52.198;5.422;2023-05-12T07:58:12;101630.28;;;14.29;100.00
64844;BME280;51310;52.198;5.422;2023-05-12T08:00:38;101627.72;;;14.20;100.00
64844;BME280;51310;52.198;5.422;2023-05-12T08:03:04;101633.53;;;14.18;100.00
64844;BME280;51310;52.198;5.422;2023-05-12T08:05:31;101631.00;;;14.36;100.00
64844;BME280;51310;52.198;5.422;2023-05-12T08:07:56;101641.16;;;14.44;100.00
64844;BME280;51310;52.198;5.422;2023-05-12T08:10:22;101633.66;;;14.55;100.00
64844;BME280;51310;52.198;5.422;2023-05-12T08:12:51;101631.38;;;14.50;100.00
64844;BME280;51310;52.198;5.422;2023-05-12T08:15:16;101638.97;;;14.57;100.00
64844;BME280;51310;52.198;5.422;2023-05-12T08:17:42;101629.63;;;14.31;100.00
64844;BME280;51310;52.198;5.422;2023-05-12T08:20:09;101632.66;;;14.36;100.00
64844;BME280;51310;52.198;5.422;2023-05-12T08:22:35;101634.22;;;14.62;100.00
64844;BME280;51310;52.198;5.422;2023-05-12T08:25:00;101631.81;;;14.54;100.00
64844;BME280;51310;52.198;5.422;2023-05-12T08:27:26;101627.59;;;14.46;100.00
64844;BME280;51310;52.198;5.422;2023-05-12T08:29:52;101630.03;;;14.72;100.00
64844;BME280;51310;52.198;5.422;2023-05-12T08:32:18;101634.75;;;14.76;100.00
64844;BME280;51310;52.198;5.422;2023-05-12T08:34:43;101631.53;;;14.98;100.00
64844;BME280;51310;52.198;5.422;2023-05-12T08:37:10;101633.84;;;14.95;100.00
64844;BME280;51310;52.198;5.422;2023-05-12T08:39:36;101634.41;;;15.20;100.00
64844;BME280;51310;52.198;5.422;2023-05-12T08:42:36;101621.91;;;15.35;100.00
64844;BME280;51310;52.198;5.422;2023-05-12T08:45:07;101622.78;;;15.54;100.00
64844;BME280;51310;52.198;5.422;2023-05-12T08:47:34;101629.84;;;15.95;100.00
64844;BME280;51310;52.198;5.422;2023-05-12T08:50:03;101632.50;;;16.05;100.00
64844;BME280;51310;52.198;5.422;2023-05-12T08:52:32;101622.56;;;15.91;100.00
64844;BME280;51310;52.198;5.422;2023-05-12T08:54:59;101636.13;;;16.17;100.00
64844;BME280;51310;52.198;5.422;2023-05-12T08:57:25;101637.38;;;15.92;100.00
64844;BME280;51310;52.198;5.422;2023-05-12T08:59:54;101639.66;;;16.18;100.00
64844;BME280;51310;52.198;5.422;2023-05-12T09:02:22;101633.69;;;16.19;100.00
64844;BME280;51310;52.198;5.422;2023-05-12T09:04:49;101639.66;;;16.18;100.00
64844;BME280;51310;52.198;5.422;2023-05-12T09:07:17;101640.88;;;16.52;100.00
64844;BME280;51310;52.198;5.422;2023-05-12T09:09:46;101636.09;;;16.88;100.00
64844;BME280;51310;52.198;5.422;2023-05-12T09:12:17;101639.59;;;16.88;100.00
64844;BME280;51310;52.198;5.422;2023-05-12T09:14:44;101642.34;;;16.90;100.00
64844;BME280;51310;52.198;5.422;2023-05-12T09:17:12;101633.31;;;16.76;100.00
64844;BME280;51310;52.198;5.422;2023-05-12T09:19:38;101647.34;;;16.47;100.00
64844;BME280;51310;52.198;5.422;2023-05-12T09:22:04;101646.06;;;16.42;100.00
64844;BME280;51310;52.198;5.422;2023-05-12T09:24:38;101643.47;;;16.73;100.00
64844;BME280;51310;52.198;5.422;2023-05-12T09:27:05;101636.34;;;16.70;100.00
64844;BME280;51310;52.198;5.422;2023-05-12T09:29:32;101648.31;;;16.89;100.00
64844;BME280;51310;52.198;5.422;2023-05-12T09:32:02;101640.91;;;16.83;100.00
64844;BME280;51310;52.198;5.422;2023-05-12T09:34:31;101648.81;;;16.74;100.00
64844;BME280;51310;52.198;5.422;2023-05-12T09:37:03;101652.34;;;16.95;100.00
64844;BME280;51310;52.198;5.422;2023-05-12T09:39:30;101654.25;;;17.29;100.00
64844;BME280;51310;52.198;5.422;2023-05-12T09:41:55;101645.31;;;17.05;100.00
64844;BME280;51310;52.198;5.422;2023-05-12T09:44:23;101650.50;;;17.15;100.00
64844;BME280;51310;52.198;5.422;2023-05-12T09:46:49;101652.66;;;17.41;100.00
64844;BME280;51310;52.198;5.422;2023-05-12T09:49:23;101657.94;;;17.53;100.00
64844;BME280;51310;52.198;5.422;2023-05-12T09:51:58;101651.25;;;17.24;100.00
64844;BME280;51310;52.198;5.422;2023-05-12T09:54:29;101655.63;;;17.46;100.00
64844;BME280;51310;52.198;5.422;2023-05-12T09:57:01;101657.13;;;17.64;100.00
64844;BME280;51310;52.198;5.422;2023-05-12T09:59:34;101659.56;;;17.73;100.00
64844;BME280;51310;52.198;5.422;2023-05-12T10:02:04;101662.53;;;17.88;100.00
64844;BME280;51310;52.198;5.422;2023-05-12T10:04:53;101659.66;;;17.95;100.00
64844;BME280;51310;52.198;5.422;2023-05-12T10:07:22;101655.72;;;18.00;100.00
64844;BME280;51310;52.198;5.422;2023-05-12T10:09:51;101666.09;;;18.10;100.00
64844;BME280;51310;52.198;5.422;2023-05-12T10:12:19;101659.53;;;18.15;100.00
64844;BME280;51310;52.198;5.422;2023-05-12T10:14:46;101660.06;;;18.33;100.00
64844;BME280;51310;52.198;5.422;2023-05-12T10:17:12;101663.75;;;18.03;100.00
64844;BME280;51310;52.198;5.422;2023-05-12T10:19:40;101668.25;;;17.94;100.00
64844;BME280;51310;52.198;5.422;2023-05-12T10:22:09;101666.84;;;17.87;100.00
64844;BME280;51310;52.198;5.422;2023-05-12T10:24:36;101661.41;;;18.06;100.00
64844;BME280;51310;52.198;5.422;2023-05-12T10:27:07;101667.22;;;18.14;100.00
64844;BME280;51310;52.198;5.422;2023-05-12T10:29:33;101662.84;;;17.70;100.00
64844;BME280;51310;52.198;5.422;2023-05-12T10:32:00;101667.06;;;17.90;100.00
64844;BME280;51310;52.198;5.422;2023-05-12T10:34:35;101655.88;;;18.13;100.00
64844;BME280;51310;52.198;5.422;2023-05-12T10:37:04;101666.84;;;18.09;100.00
64844;BME280;51310;52.198;5.422;2023-05-12T10:39:33;101661.63;;;17.87;100.00
64844;BME280;51310;52.198;5.422;2023-05-12T10:42:09;101668.31;;;18.28;100.00
64844;BME280;51310;52.198;5.422;2023-05-12T10:44:48;101666.34;;;18.69;100.00
64844;BME280;51310;52.198;5.422;2023-05-12T10:47:14;101665.47;;;18.80;100.00
64844;BME280;51310;52.198;5.422;2023-05-12T10:49:41;101666.47;;;18.49;100.00
64844;BME280;51310;52.198;5.422;2023-05-12T10:52:11;101672.16;;;18.55;100.00
64844;BME280;51310;52.198;5.422;2023-05-12T10:54:41;101668.69;;;19.00;100.00
64844;BME280;51310;52.198;5.422;2023-05-12T10:57:15;101665.28;;;18.89;100.00
64844;BME280;51310;52.198;5.422;2023-05-12T10:59:49;101664.72;;;18.81;100.00
64844;BME280;51310;52.198;5.422;2023-05-12T11:02:18;101663.41;;;19.22;100.00
64844;BME280;51310;52.198;5.422;2023-05-12T11:04:55;101661.50;;;19.43;100.00
64844;BME280;51310;52.198;5.422;2023-05-12T11:07:27;101663.19;;;19.19;100.00
64844;BME280;51310;52.198;5.422;2023-05-12T11:09:59;101662.91;;;18.92;100.00
64844;BME280;51310;52.198;5.422;2023-05-12T11:12:28;101666.66;;;18.40;100.00
64844;BME280;51310;52.198;5.422;2023-05-12T11:14:59;101661.63;;;18.53;100.00
64844;BME280;51310;52.198;5.422;2023-05-12T11:17:25;101671.56;;;19.03;100.00
64844;BME280;51310;52.198;5.422;2023-05-12T11:19:52;101662.00;;;18.92;100.00
64844;BME280;51310;52.198;5.422;2023-05-12T11:22:20;101671.69;;;18.71;100.00
64844;BME280;51310;52.198;5.422;2023-05-12T11:24:48;101670.81;;;18.82;100.00
64844;BME280;51310;52.198;5.422;2023-05-12T11:27:20;101673.44;;;18.60;100.00
64844;BME280;51310;52.198;5.422;2023-05-12T11:29:58;101667.13;;;18.90;100.00
64844;BME280;51310;52.198;5.422;2023-05-12T11:32:24;101678.81;;;18.73;100.00
64844;BME280;51310;52.198;5.422;2023-05-12T11:34:50;101685.00;;;18.63;100.00
64844;BME280;51310;52.198;5.422;2023-05-12T11:37:16;101670.78;;;19.16;100.00
64844;BME280;51310;52.198;5.422;2023-05-12T11:39:45;101671.94;;;19.43;100.00
64844;BME280;51310;52.198;5.422;2023-05-12T11:42:11;101673.75;;;19.44;98.74
64844;BME280;51310;52.198;5.422;2023-05-12T11:44:48;101668.09;;;19.73;98.54
64844;BME280;51310;52.198;5.422;2023-05-12T11:47:16;101687.19;;;19.72;99.98
64844;BME280;51310;52.198;5.422;2023-05-12T11:49:50;101676.81;;;19.62;98.00
64844;BME280;51310;52.198;5.422;2023-05-12T11:52:18;101676.34;;;20.03;99.46
64844;BME280;51310;52.198;5.422;2023-05-12T11:54:58;101679.28;;;20.07;95.40
64844;BME280;51310;52.198;5.422;2023-05-12T11:57:33;101675.13;;;20.23;95.95
64844;BME280;51310;52.198;5.422;2023-05-12T12:00:03;101681.97;;;20.21;99.01
64844;BME280;51310;52.198;5.422;2023-05-12T12:02:30;101679.19;;;19.94;99.93
64844;BME280;51310;52.198;5.422;2023-05-12T12:04:56;101678.63;;;19.86;100.00
64844;BME280;51310;52.198;5.422;2023-05-12T12:09:56;101668.78;;;19.35;100.00
64844;BME280;51310;52.198;5.422;2023-05-12T12:12:22;101675.53;;;19.21;100.00
64844;BME280;51310;52.198;5.422;2023-05-12T12:14:47;101670.66;;;19.14;100.00
64844;BME280;51310;52.198;5.422;2023-05-12T12:17:13;101679.34;;;18.91;100.00
64844;BME280;51310;52.198;5.422;2023-05-12T12:19:39;101672.56;;;18.93;100.00
64844;BME280;51310;52.198;5.422;2023-05-12T12:22:04;101673.63;;;19.31;100.00
64844;BME280;51310;52.198;5.422;2023-05-12T12:24:30;101677.72;;;19.62;100.00
64844;BME280;51310;52.198;5.422;2023-05-12T12:26:56;101680.91;;;19.82;100.00
64844;BME280;51310;52.198;5.422;2023-05-12T12:29:21;101674.66;;;19.56;100.00
64844;BME280;51310;52.198;5.422;2023-05-12T12:31:49;101673.41;;;19.39;100.00
64844;BME280;51310;52.198;5.422;2023-05-12T12:34:15;101685.56;;;19.51;100.00
64844;BME280;51310;52.198;5.422;2023-05-12T12:36:40;101687.00;;;19.12;97.71
64844;BME280;51310;52.198;5.422;2023-05-12T12:39:06;101693.72;;;19.32;98.92
64844;BME280;51310;52.198;5.422;2023-05-12T12:41:32;101694.38;;;20.00;99.92
64844;BME280;51310;52.198;5.422;2023-05-12T12:43:58;101687.25;;;19.97;100.00